Time;durP1;ratioP1;P1;durP2;ratioP2;P2;SDS_P1;SDS_P2;PMS_P1;PMS_P2;Temp;Humidity;BMP_temperature;BMP_pressure;BME280_temperature;BME280_humidity;BME280_pressure;Samples;Min_cycle;Max_cycle;Signal;HPM_P1;HPM_P2
2023/07/04 00:01:09;;;;;;;13.80;1.75;;;11.20;99.90;;;;;;4996616;28;20673;-75
2023/07/04 00:03:37;;;;;;;15.02;1.60;;;11.10;99.90;;;;;;4997285;28;20054;-74
2023/07/04 00:06:05;;;;;;;9.88;1.42;;;11.20;99.90;;;;;;4979423;28;20061;-74
2023/07/04 00:08:33;;;;;;;16.63;1.88;;;11.20;99.90;;;;;;4996301;28;20051;-75
2023/07/04 00:11:01;;;;;;;11.05;1.98;;;11.10;99.90;;;;;;4996597;28;20390;-75
2023/07/04 00:13:28;;;;;;;12.70;2.08;;;11.20;99.90;;;;;;4995612;28;20108;-74
2023/07/04 00:15:55;;;;;;;17.38;2.30;;;11.10;99.90;;;;;;4995252;28;20088;-73
2023/07/04 00:18:23;;;;;;;12.48;2.10;;;11.10;99.90;;;;;;4997035;28;20100;-73
2023/07/04 00:20:54;;;;;;;14.43;1.77;;;11.10;99.90;;;;;;4997013;28;20041;-72
2023/07/04 00:23:33;;;;;;;10.48;2.15;;;11.20;99.90;;;;;;4995458;28;20045;-71
2023/07/04 00:26:01;;;;;;;11.05;1.77;;;11.20;99.90;;;;;;4996983;28;20050;-74
2023/07/04 00:28:27;;;;;;;11.43;1.90;;;11.10;99.90;;;;;;4994891;28;20450;-73
2023/07/04 00:30:54;;;;;;;12.25;1.75;;;11.00;99.90;;;;;;4996700;28;20081;-74
2023/07/04 00:33:22;;;;;;;10.80;2.00;;;11.00;99.90;;;;;;4997438;28;20057;-73
2023/07/04 00:35:49;;;;;;;14.57;2.08;;;11.00;99.90;;;;;;4998262;28;20529;-73
2023/07/04 00:38:16;;;;;;;13.82;2.10;;;11.20;99.90;;;;;;4998702;28;20038;-74
2023/07/04 00:40:44;;;;;;;12.52;1.50;;;11.00;99.90;;;;;;4980592;28;20064;-73
2023/07/04 00:43:12;;;;;;;11.48;1.98;;;11.10;99.90;;;;;;4996441;28;20049;-74
2023/07/04 00:45:43;;;;;;;12.90;2.17;;;11.20;99.90;;;;;;4997111;28;20049;-73
2023/07/04 00:48:11;;;;;;;8.50;1.75;;;11.00;99.90;;;;;;4998561;28;20199;-73
2023/07/04 00:50:43;;;;;;;12.93;2.10;;;11.20;99.90;;;;;;4998135;28;20493;-73
2023/07/04 00:53:11;;;;;;;9.63;2.05;;;11.20;99.90;;;;;;4996508;28;20392;-73
2023/07/04 00:55:41;;;;;;;13.15;1.60;;;11.00;99.90;;;;;;4997264;28;20085;-76
2023/07/04 00:58:07;;;;;;;13.25;1.88;;;11.20;99.90;;;;;;4995954;28;20660;-72
2023/07/04 01:00:36;;;;;;;12.43;2.17;;;11.10;99.90;;;;;;4997512;28;20052;-72
2023/07/04 01:03:10;;;;;;;12.68;1.88;;;11.20;99.90;;;;;;4996506;28;20438;-73
2023/07/04 01:06:00;;;;;;;15.38;2.30;;;11.10;99.90;;;;;;4997262;28;20264;-74
2023/07/04 01:08:32;;;;;;;14.23;1.95;;;11.00;99.90;;;;;;4997259;28;20064;-73
2023/07/04 01:11:01;;;;;;;15.60;1.95;;;11.20;99.90;;;;;;4980126;28;20061;-73
2023/07/04 01:13:35;;;;;;;10.68;1.90;;;11.20;99.90;;;;;;4996110;28;20508;-73
2023/07/04 01:16:09;;;;;;;10.75;1.75;;;11.00;99.90;;;;;;4996397;28;20488;-75
2023/07/04 01:18:35;;;;;;;;;;;11.10;99.90;;;;;;4998398;28;20750;-72
2023/07/04 01:21:05;;;;;;;14.75;2.15;;;11.10;99.90;;;;;;4996406;28;20403;-73
2023/07/04 01:23:37;;;;;;;13.13;2.42;;;11.10;99.90;;;;;;4980630;28;20046;-74
2023/07/04 01:26:34;;;;;;;12.30;1.70;;;11.20;99.90;;;;;;4999455;28;20049;-74
2023/07/04 01:29:01;;;;;;;11.57;1.77;;;11.20;99.90;;;;;;4999586;28;20042;-73
2023/07/04 01:31:30;;;;;;;10.68;2.00;;;11.20;99.90;;;;;;4999705;28;20425;-74
2023/07/04 01:33:57;;;;;;;12.50;1.85;;;11.20;99.90;;;;;;4999072;28;20058;-73
2023/07/04 01:36:26;;;;;;;10.88;1.45;;;11.10;99.90;;;;;;4997509;28;20430;-72
2023/07/04 01:38:53;;;;;;;13.40;1.77;;;11.30;99.90;;;;;;4982205;28;20053;-72
2023/07/04 01:41:19;;;;;;;15.23;2.03;;;11.30;99.90;;;;;;4999245;28;20042;-74
2023/07/04 01:43:50;;;;;;;12.98;1.67;;;11.20;99.90;;;;;;4999856;28;20131;-76
2023/07/04 01:46:16;;;;;;;10.38;2.05;;;11.20;99.90;;;;;;4999514;28;20038;-74
2023/07/04 01:48:42;;;;;;;11.85;1.75;;;11.40;99.90;;;;;;4999575;28;20698;-74
2023/07/04 01:51:07;;;;;;;10.35;2.05;;;11.30;99.90;;;;;;4999079;28;20176;-70
2023/07/04 01:53:33;;;;;;;13.13;2.45;;;11.30;99.90;;;;;;4999870;28;20385;-72
2023/07/04 01:55:59;;;;;;;13.50;1.60;;;11.50;99.90;;;;;;4999713;28;20116;-76
2023/07/04 01:58:24;;;;;;;9.18;1.60;;;11.50;99.90;;;;;;4998517;28;20046;-73
2023/07/04 02:00:50;;;;;;;12.30;2.10;;;11.50;99.90;;;;;;4999524;28;20434;-74
2023/07/04 02:03:16;;;;;;;14.38;2.08;;;11.40;99.90;;;;;;4999946;28;20096;-71
2023/07/04 02:05:41;;;;;;;9.15;2.03;;;11.30;99.90;;;;;;5001714;28;20101;-75
2023/07/04 02:08:08;;;;;;;11.63;2.28;;;11.30;99.90;;;;;;5002299;28;20038;-72
2023/07/04 02:10:34;;;;;;;11.95;2.28;;;11.20;99.90;;;;;;5001858;28;20505;-73
2023/07/04 02:12:59;;;;;;;17.08;2.05;;;11.10;99.90;;;;;;4999650;28;20053;-75
2023/07/04 02:15:26;;;;;;;13.52;2.20;;;11.10;99.90;;;;;;4981746;28;20262;-74
2023/07/04 02:17:52;;;;;;;12.55;2.35;;;11.20;99.90;;;;;;4982186;28;20038;-73
2023/07/04 02:20:19;;;;;;;10.98;2.67;;;11.10;99.90;;;;;;4997850;28;20381;-76
2023/07/04 02:22:45;;;;;;;9.65;2.10;;;11.10;99.90;;;;;;5001102;28;20042;-75
2023/07/04 02:25:11;;;;;;;10.15;2.30;;;11.00;99.90;;;;;;5006428;28;20057;-72
2023/07/04 02:27:37;;;;;;;13.50;2.03;;;11.10;99.90;;;;;;4992167;28;20076;-73
2023/07/04 02:30:04;;;;;;;11.10;2.28;;;10.90;99.90;;;;;;5004678;28;20050;-72
2023/07/04 02:32:30;;;;;;;12.52;1.98;;;10.90;99.90;;;;;;5001609;28;20056;-74
2023/07/04 02:34:55;;;;;;;11.85;2.10;;;10.90;99.90;;;;;;4999609;28;20053;-74
2023/07/04 02:37:21;;;;;;;11.27;2.30;;;11.00;99.90;;;;;;4999442;28;20338;-73
2023/07/04 02:39:48;;;;;;;10.52;2.38;;;11.00;99.90;;;;;;4981682;28;20065;-73
2023/07/04 02:42:14;;;;;;;14.88;2.70;;;10.80;99.90;;;;;;4996489;28;20045;-72
2023/07/04 02:44:39;;;;;;;13.40;3.13;;;11.10;99.90;;;;;;5007692;28;20239;-73
2023/07/04 02:47:05;;;;;;;9.35;3.10;;;11.00;99.90;;;;;;5008708;28;20059;-72
2023/07/04 02:49:31;;;;;;;10.13;2.95;;;10.90;99.90;;;;;;5005543;28;20049;-73
2023/07/04 02:51:56;;;;;;;14.70;2.92;;;10.90;99.90;;;;;;5000201;28;20129;-71
2023/07/04 02:54:22;;;;;;;9.15;2.53;;;10.70;99.90;;;;;;4997979;28;20053;-72
2023/07/04 02:56:48;;;;;;;13.63;2.92;;;10.80;99.90;;;;;;4994877;28;20386;-74
2023/07/04 02:59:13;;;;;;;14.10;3.08;;;10.80;99.90;;;;;;4978151;28;20129;-73
2023/07/04 03:01:39;;;;;;;12.80;3.35;;;10.90;99.90;;;;;;4978363;28;20096;-73
2023/07/04 03:04:05;;;;;;;14.75;3.60;;;10.70;99.90;;;;;;4995731;28;20042;-72
2023/07/04 03:06:30;;;;;;;16.42;4.35;;;10.80;99.90;;;;;;4996518;28;20064;-75
2023/07/04 03:08:56;;;;;;;12.65;3.42;;;10.60;99.90;;;;;;4978573;28;20901;-74
2023/07/04 03:11:22;;;;;;;11.63;3.42;;;10.60;99.90;;;;;;4994508;28;20064;-74
2023/07/04 03:13:50;;;;;;;8.32;2.85;;;10.70;99.90;;;;;;4978602;28;20385;-73
2023/07/04 03:16:15;;;;;;;13.48;3.38;;;10.80;99.90;;;;;;4961321;28;20400;-72
2023/07/04 03:18:41;;;;;;;8.75;2.95;;;10.80;99.90;;;;;;4993086;28;20046;-72
2023/07/04 03:21:07;;;;;;;7.75;2.78;;;10.70;99.90;;;;;;4992695;28;20690;-71
2023/07/04 03:23:32;;;;;;;17.70;3.97;;;10.70;99.90;;;;;;4977189;28;20041;-74
2023/07/04 03:25:58;;;;;;;15.48;3.75;;;10.70;99.90;;;;;;4994514;28;20053;-74
2023/07/04 03:28:24;;;;;;;14.52;3.60;;;10.70;99.90;;;;;;4993904;28;20726;-71
2023/07/04 03:30:50;;;;;;;13.25;2.60;;;10.80;99.90;;;;;;4994281;28;20914;-73
2023/07/04 03:33:16;;;;;;;10.23;2.97;;;11.00;99.90;;;;;;4993770;28;20512;-72
2023/07/04 03:35:43;;;;;;;5.78;2.58;;;11.00;99.90;;;;;;4993689;28;20482;-72
2023/07/04 03:38:08;;;;;;;11.27;3.45;;;11.00;99.90;;;;;;4993764;28;20038;-73
2023/07/04 03:40:34;;;;;;;9.40;3.17;;;11.00;99.90;;;;;;4995434;28;20052;-73
2023/07/04 03:43:00;;;;;;;12.27;3.75;;;10.80;99.90;;;;;;4994695;28;20663;-74
2023/07/04 03:45:25;;;;;;;9.20;3.03;;;10.80;99.90;;;;;;4993148;28;20052;-73
2023/07/04 03:47:51;;;;;;;9.07;3.13;;;11.00;99.90;;;;;;4993437;28;20042;-73
2023/07/04 03:50:17;;;;;;;11.75;3.53;;;10.80;99.90;;;;;;4994809;28;20365;-74
2023/07/04 03:52:44;;;;;;;11.10;3.53;;;10.90;99.90;;;;;;4994740;28;20044;-74
2023/07/04 03:55:09;;;;;;;11.52;3.30;;;10.90;99.90;;;;;;4993624;28;20116;-73
2023/07/04 03:57:35;;;;;;;10.27;3.55;;;10.90;99.90;;;;;;4992730;28;20525;-74
2023/07/04 04:00:04;;;;;;;12.85;3.58;;;11.10;99.90;;;;;;4994090;28;20092;-73
2023/07/04 04:02:29;;;;;;;11.32;3.63;;;11.10;99.90;;;;;;4993876;28;20065;-73
2023/07/04 04:04:55;;;;;;;14.18;3.88;;;11.20;99.90;;;;;;4977453;28;20030;-73
2023/07/04 04:07:22;;;;;;;10.65;3.08;;;11.10;99.90;;;;;;4977361;28;20062;-73
2023/07/04 04:09:47;;;;;;;10.10;3.75;;;11.20;99.90;;;;;;4993342;28;20034;-74
2023/07/04 04:12:13;;;;;;;10.80;3.10;;;11.20;99.90;;;;;;4993221;28;20096;-72
2023/07/04 04:14:39;;;;;;;10.60;2.90;;;11.40;99.90;;;;;;4994719;28;20045;-73
2023/07/04 04:17:05;;;;;;;5.78;2.30;;;11.30;99.90;;;;;;4994074;28;20033;-71
2023/07/04 04:19:31;;;;;;;8.90;2.72;;;11.60;99.90;;;;;;4976728;28;20077;-73
2023/07/04 04:21:57;;;;;;;8.02;2.42;;;11.40;99.90;;;;;;4995255;28;20077;-75
2023/07/04 04:24:23;;;;;;;9.77;2.00;;;11.50;99.90;;;;;;4977787;28;20042;-73
2023/07/04 04:26:49;;;;;;;7.50;1.80;;;11.60;99.90;;;;;;4993340;28;20046;-74
2023/07/04 04:29:17;;;;;;;9.00;2.47;;;11.80;99.90;;;;;;4993329;28;20164;-74
2023/07/04 04:31:46;;;;;;;5.40;1.60;;;11.80;99.90;;;;;;4994411;28;20518;-72
2023/07/04 04:34:13;;;;;;;7.90;1.52;;;11.70;99.90;;;;;;4991816;28;20159;-75
2023/07/04 04:36:39;;;;;;;10.63;1.58;;;11.80;99.90;;;;;;4994928;28;20363;-75
2023/07/04 04:39:05;;;;;;;7.20;1.05;;;12.00;99.90;;;;;;4994060;28;20052;-75
2023/07/04 04:41:32;;;;;;;7.05;1.10;;;11.90;99.90;;;;;;4992753;28;20053;-73
2023/07/04 04:43:59;;;;;;;5.40;0.60;;;12.20;99.90;;;;;;4994120;28;20750;-73
2023/07/04 04:46:25;;;;;;;5.03;0.60;;;12.40;99.90;;;;;;4995561;28;20052;-73
2023/07/04 04:48:51;;;;;;;4.22;0.68;;;12.50;99.90;;;;;;4995612;28;20457;-73
2023/07/04 04:51:18;;;;;;;4.72;0.60;;;12.60;99.90;;;;;;4996492;28;20387;-74
2023/07/04 04:53:45;;;;;;;6.07;0.80;;;12.70;99.90;;;;;;4978799;28;20046;-74
2023/07/04 04:56:11;;;;;;;5.43;0.60;;;12.90;99.90;;;;;;4979828;28;20070;-73
2023/07/04 04:58:37;;;;;;;4.63;0.70;;;12.80;99.90;;;;;;4999902;28;20046;-74
2023/07/04 05:01:23;;;;;;;5.38;0.50;;;13.00;99.90;;;;;;4985197;28;20060;-73
2023/07/04 05:03:53;;;;;;;5.70;0.60;;;13.00;99.90;;;;;;5001440;28;20084;-73
2023/07/04 05:06:23;;;;;;;6.25;0.70;;;13.00;99.90;;;;;;5001312;28;20046;-73
2023/07/04 05:08:50;;;;;;;4.78;0.52;;;13.10;99.90;;;;;;5002267;28;20045;-72
2023/07/04 05:11:16;;;;;;;5.97;0.80;;;13.10;99.90;;;;;;5002591;28;20073;-73
2023/07/04 05:13:44;;;;;;;5.40;0.68;;;13.10;99.90;;;;;;4984714;28;20050;-72
2023/07/04 05:16:13;;;;;;;7.20;0.98;;;13.20;99.90;;;;;;5002623;28;20050;-72
2023/07/04 05:18:39;;;;;;;8.18;0.90;;;13.10;99.90;;;;;;4999804;28;20046;-75
2023/07/04 05:21:09;;;;;;;9.85;0.90;;;13.20;99.90;;;;;;4983663;28;20648;-72
2023/07/04 05:23:37;;;;;;;5.30;0.60;;;13.40;99.90;;;;;;5000928;28;20045;-73
2023/07/04 05:26:23;;;;;;;7.72;1.30;;;13.40;99.90;;;;;;5000717;28;20125;-73
2023/07/04 05:28:54;;;;;;;6.88;1.20;;;13.50;99.90;;;;;;4982187;28;20067;-71
2023/07/04 05:31:23;;;;;;;5.57;0.85;;;13.60;99.90;;;;;;4998307;28;20049;-72
2023/07/04 05:33:50;;;;;;;9.65;1.10;;;13.60;99.90;;;;;;4997424;28;20041;-74
2023/07/04 05:36:22;;;;;;;4.68;1.00;;;13.80;99.90;;;;;;4997993;28;20599;-72
2023/07/04 05:38:50;;;;;;;6.35;0.95;;;13.80;99.90;;;;;;4997629;28;20104;-73
2023/07/04 05:41:18;;;;;;;8.10;1.20;;;13.90;99.90;;;;;;4995851;28;20454;-73
2023/07/04 05:43:44;;;;;;;6.57;1.02;;;13.90;99.90;;;;;;4995593;28;20580;-72
2023/07/04 05:46:11;;;;;;;6.70;1.25;;;14.10;99.90;;;;;;4996559;28;20057;-74
2023/07/04 05:48:38;;;;;;;7.57;1.30;;;14.00;99.90;;;;;;4996924;28;20042;-72
2023/07/04 05:51:06;;;;;;;5.72;1.60;;;14.00;99.90;;;;;;4995497;28;20042;-73
2023/07/04 05:53:36;;;;;;;6.78;1.52;;;14.30;99.90;;;;;;4978767;28;20061;-74
2023/07/04 05:56:12;;;;;;;11.52;1.58;;;14.30;99.90;;;;;;4995044;28;20046;-72
2023/07/04 05:58:41;;;;;;;9.93;1.45;;;14.30;99.90;;;;;;4995409;28;20134;-74
2023/07/04 06:01:19;;;;;;;7.53;1.92;;;14.40;99.90;;;;;;4979284;28;20045;-73
2023/07/04 06:03:45;;;;;;;8.00;1.90;;;14.20;99.90;;;;;;4996399;28;20100;-73
2023/07/04 06:06:28;;;;;;;7.25;1.63;;;14.40;99.90;;;;;;4996517;28;20292;-73
2023/07/04 06:08:56;;;;;;;5.10;1.42;;;14.60;99.90;;;;;;4996495;28;20049;-72
2023/07/04 06:11:26;;;;;;;10.43;2.00;;;14.80;99.90;;;;;;4995170;28;20181;-70
2023/07/04 06:13:51;;;;;;;9.88;1.73;;;14.80;99.90;;;;;;4996284;28;20088;-73
2023/07/04 06:16:17;;;;;;;8.98;1.48;;;15.00;99.90;;;;;;4996038;28;20145;-71
2023/07/04 06:18:43;;;;;;;6.57;1.55;;;15.40;99.90;;;;;;4995159;28;20354;-71
2023/07/04 06:21:13;;;;;;;6.80;1.38;;;15.40;99.90;;;;;;4996672;28;20533;-72
2023/07/04 06:23:40;;;;;;;7.78;1.33;;;15.50;99.90;;;;;;4995842;28;20053;-73
2023/07/04 06:26:07;;;;;;;7.13;1.38;;;15.60;99.90;;;;;;4996402;28;20042;-72
2023/07/04 06:28:34;;;;;;;6.32;1.30;;;15.30;99.90;;;;;;4980455;28;20050;-72
2023/07/04 06:31:03;;;;;;;7.32;1.02;;;15.50;99.90;;;;;;4999025;28;20416;-72
2023/07/04 06:33:29;;;;;;;7.85;0.93;;;15.30;99.90;;;;;;4997293;28;20050;-73
2023/07/04 06:35:55;;;;;;;4.60;0.90;;;15.40;99.90;;;;;;5014081;28;20534;-73
2023/07/04 06:38:22;;;;;;;7.18;0.80;;;15.40;99.90;;;;;;4999517;28;20089;-73
2023/07/04 06:41:02;;;;;;;4.57;0.75;;;15.60;99.90;;;;;;5001826;28;20042;-73
2023/07/04 06:43:30;;;;;;;9.20;0.90;;;15.40;99.90;;;;;;5000928;28;20129;-72
2023/07/04 06:45:56;;;;;;;6.57;0.68;;;15.50;99.90;;;;;;5001482;28;20376;-73
2023/07/04 06:48:23;;;;;;;4.65;0.50;;;15.60;99.90;;;;;;5011526;28;20050;-73
2023/07/04 06:51:03;;;;;;;4.63;0.50;;;15.90;99.90;;;;;;5010069;28;20363;-73
2023/07/04 06:53:30;;;;;;;5.45;0.80;;;16.20;1.00;;;;;;5008305;28;20085;-73
2023/07/04 06:56:09;;;;;;;4.25;0.47;;;16.50;1.00;;;;;;5002362;28;20042;-71
2023/07/04 06:58:37;;;;;;;6.90;0.70;;;16.30;99.90;;;;;;5001901;28;20038;-75
2023/07/04 07:01:03;;;;;;;3.47;0.43;;;16.10;99.90;;;;;;5001100;28;20061;-75
2023/07/04 07:03:30;;;;;;;2.72;0.38;;;16.50;99.90;;;;;;5001415;28;20041;-74
2023/07/04 07:05:56;;;;;;;5.00;0.63;;;16.40;96.20;;;;;;4999113;28;20077;-74
2023/07/04 07:08:22;;;;;;;3.85;0.50;;;16.50;99.90;;;;;;4999626;28;20129;-73
2023/07/04 07:10:56;;;;;;;5.68;0.47;;;16.40;1.00;;;;;;5002318;28;20137;-73
2023/07/04 07:13:22;;;;;;;4.00;0.47;;;16.30;1.00;;;;;;5008364;28;20617;-74
2023/07/04 07:15:48;;;;;;;5.13;0.65;;;16.50;28.90;;;;;;5008407;28;20041;-73
2023/07/04 07:18:14;;;;;;;5.35;0.50;;;16.40;1.00;;;;;;5008220;28;20096;-74
2023/07/04 07:20:40;;;;;;;6.32;0.40;;;16.40;99.90;;;;;;5008982;28;20535;-74
2023/07/04 07:23:05;;;;;;;4.05;0.50;;;16.50;1.00;;;;;;5002762;28;20037;-71
2023/07/04 07:25:31;;;;;;;4.63;0.30;;;16.70;99.90;;;;;;5000524;28;20153;-75
2023/07/04 07:27:57;;;;;;;4.88;0.40;;;16.80;99.90;;;;;;4998685;28;20100;-73
2023/07/04 07:30:22;;;;;;;4.20;0.50;;;16.80;99.90;;;;;;4998337;28;20238;-73
2023/07/04 07:32:48;;;;;;;3.78;0.50;;;17.10;99.90;;;;;;4980144;28;20056;-73
2023/07/04 07:35:14;;;;;;;4.93;0.60;;;17.00;99.90;;;;;;4997608;28;20057;-74
2023/07/04 07:37:39;;;;;;;5.25;0.50;;;16.90;99.90;;;;;;4999787;28;20046;-72
2023/07/04 07:40:06;;;;;;;6.22;0.57;;;17.00;99.90;;;;;;4983438;28;20560;-73
2023/07/04 07:42:32;;;;;;;3.17;0.43;;;17.00;99.90;;;;;;5000147;28;20073;-74
2023/07/04 07:44:59;;;;;;;4.80;0.50;;;17.20;99.90;;;;;;4999814;28;20081;-74
2023/07/04 07:47:25;;;;;;;4.05;0.40;;;17.40;99.90;;;;;;4999930;28;20046;-73
2023/07/04 07:49:51;;;;;;;3.10;0.30;;;17.50;99.90;;;;;;5001040;28;20548;-69
2023/07/04 07:52:16;;;;;;;5.25;0.40;;;17.30;99.90;;;;;;4998605;28;20137;-75
2023/07/04 07:54:42;;;;;;;7.55;0.68;;;17.30;99.90;;;;;;4998346;28;20436;-73
2023/07/04 07:57:08;;;;;;;2.67;0.40;;;17.10;95.20;;;;;;4998361;28;20042;-73
2023/07/04 07:59:34;;;;;;;3.50;0.40;;;17.20;99.90;;;;;;4998196;28;20045;-72
2023/07/04 08:01:59;;;;;;;3.28;0.40;;;17.40;99.90;;;;;;4998265;28;20034;-73
2023/07/04 08:04:25;;;;;;;3.25;0.40;;;17.40;99.90;;;;;;4995491;28;20081;-72
2023/07/04 08:06:51;;;;;;;4.13;0.32;;;17.50;99.90;;;;;;4979724;28;20676;-72
2023/07/04 08:09:19;;;;;;;5.57;0.40;;;17.70;99.90;;;;;;4997860;28;20081;-72
2023/07/04 08:11:46;;;;;;;2.72;0.40;;;17.80;99.90;;;;;;4996640;28;20037;-77
2023/07/04 08:14:13;;;;;;;4.75;0.40;;;17.70;1.00;;;;;;4998156;28;20054;-73
2023/07/04 08:16:49;;;;;;;5.32;0.50;;;17.90;1.00;;;;;;4997014;28;20563;-72
2023/07/04 08:19:17;;;;;;;4.05;0.50;;;17.80;1.00;;;;;;4995927;28;20058;-74
2023/07/04 08:21:43;;;;;;;2.55;0.30;;;17.60;1.00;;;;;;4996373;28;20671;-72
2023/07/04 08:24:10;;;;;;;2.97;0.30;;;17.40;1.00;;;;;;4996283;28;20747;-75
2023/07/04 08:26:38;;;;;;;2.83;0.40;;;17.50;99.90;;;;;;4992620;28;20077;-72
2023/07/04 08:29:04;;;;;;;2.95;0.40;;;17.70;99.90;;;;;;4993354;28;20089;-75
2023/07/04 08:31:30;;;;;;;4.85;0.50;;;17.90;99.90;;;;;;4993313;28;20049;-73
2023/07/04 08:33:56;;;;;;;3.88;0.40;;;18.30;99.90;;;;;;4994434;28;20057;-73
2023/07/04 08:36:21;;;;;;;3.22;0.20;;;18.90;99.90;;;;;;4977166;28;20065;-72
2023/07/04 08:38:49;;;;;;;3.75;0.40;;;18.90;99.90;;;;;;4993931;28;20062;-72
2023/07/04 08:41:40;;;;;;;4.72;0.43;;;18.80;99.90;;;;;;4994221;28;20113;-75
2023/07/04 08:44:22;;;;;;;4.35;0.35;;;19.10;99.90;;;;;;4993021;28;20038;-74
2023/07/04 08:46:50;;;;;;;3.95;0.40;;;19.20;99.90;;;;;;4994607;28;20046;-74
2023/07/04 08:49:39;;;;;;;2.17;0.30;;;19.40;99.90;;;;;;4993911;28;20034;-72
2023/07/04 08:52:10;;;;;;;3.38;0.40;;;19.60;99.90;;;;;;4979869;28;20129;-75
2023/07/04 08:54:36;;;;;;;3.22;0.30;;;19.70;99.90;;;;;;4996848;28;20124;-73
2023/07/04 08:57:20;;;;;;;4.35;0.30;;;19.50;99.90;;;;;;4995560;28;20261;-72
2023/07/04 08:59:49;;;;;;;3.80;0.38;;;19.20;99.90;;;;;;4995182;28;20642;-72
2023/07/04 09:02:55;;;;;;;3.30;0.32;;;18.80;99.90;;;;;;4996086;28;20108;-74
2023/07/04 09:05:35;;;;;;;2.70;0.40;;;18.50;99.90;;;;;;4978008;28;20076;-73
2023/07/04 09:08:24;;;;;;;3.92;0.30;;;18.40;99.90;;;;;;4994746;28;20069;-74
2023/07/04 09:10:56;;;;;;;2.65;0.30;;;18.80;99.90;;;;;;4977416;28;20061;-74
2023/07/04 09:13:29;;;;;;;3.17;0.40;;;19.00;99.90;;;;;;4995066;28;20050;-75
2023/07/04 09:16:17;;;;;;;4.72;0.40;;;19.20;99.90;;;;;;4994652;28;20046;-75
2023/07/04 09:18:48;;;;;;;3.30;0.40;;;19.20;99.90;;;;;;4994043;28;20053;-74
2023/07/04 09:21:19;;;;;;;1.83;0.30;;;19.10;99.90;;;;;;4995099;28;20046;-75
2023/07/04 09:23:47;;;;;;;3.28;0.38;;;18.90;99.90;;;;;;4994148;28;20038;-73
2023/07/04 09:26:17;;;;;;;4.53;0.40;;;19.30;99.90;;;;;;4994016;28;20045;-74
2023/07/04 09:28:47;;;;;;;3.30;0.40;;;19.60;99.90;;;;;;4993023;28;20044;-74
2023/07/04 09:31:20;;;;;;;4.65;0.50;;;19.60;99.90;;;;;;4992488;28;20131;-73
2023/07/04 09:33:47;;;;;;;;;;;19.40;99.90;;;;;;4994401;28;20050;-75
2023/07/04 09:36:16;;;;;;;6.63;0.55;;;18.80;99.90;;;;;;4992235;28;20369;-72
2023/07/04 09:39:01;;;;;;;3.38;0.40;;;18.10;99.90;;;;;;4993382;28;20096;-76
2023/07/04 09:41:34;;;;;;;6.68;0.70;;;17.40;99.90;;;;;;4993897;28;20087;-73
2023/07/04 09:44:18;;;;;;;7.93;0.85;;;16.60;99.90;;;;;;4994868;28;20621;-76
2023/07/04 09:46:50;;;;;;;6.22;0.70;;;15.50;99.90;;;;;;4997090;28;20559;-74
2023/07/04 09:49:35;;;;;;;12.85;1.38;;;14.80;99.90;;;;;;4996783;28;20045;-73
2023/07/04 09:52:05;;;;;;;8.95;1.20;;;14.40;99.90;;;;;;4995702;28;20051;-73
2023/07/04 09:54:34;;;;;;;7.10;0.85;;;14.20;99.90;;;;;;4995123;28;20046;-74
2023/07/04 09:57:22;;;;;;;5.82;1.00;;;14.20;1.00;;;;;;4979710;28;20087;-74
2023/07/04 09:59:50;;;;;;;7.88;0.70;;;14.70;99.90;;;;;;4997059;28;20048;-72
2023/07/04 10:02:23;;;;;;;8.90;1.35;;;15.30;1.00;;;;;;4997201;28;20531;-75
2023/07/04 10:04:50;;;;;;;7.47;0.93;;;16.10;1.00;;;;;;4995825;28;20042;-73
2023/07/04 10:07:20;;;;;;;7.50;1.00;;;16.80;99.90;;;;;;4995847;28;20181;-74
2023/07/04 10:09:56;;;;;;;9.40;1.27;;;17.30;1.00;;;;;;4998143;28;20042;-75
2023/07/04 10:12:23;;;;;;;8.40;1.15;;;17.90;1.00;;;;;;4997159;28;20076;-74
2023/07/04 10:14:57;;;;;;;10.27;1.20;;;18.30;1.00;;;;;;4979475;28;20510;-74
2023/07/04 10:17:32;;;;;;;8.48;0.90;;;18.30;99.90;;;;;;4995979;28;20054;-74
2023/07/04 10:20:04;;;;;;;6.05;0.70;;;18.10;1.00;;;;;;4998759;28;20092;-74
2023/07/04 10:22:32;;;;;;;6.18;0.75;;;17.50;99.90;;;;;;4998286;28;20725;-73
2023/07/04 10:25:00;;;;;;;6.22;0.70;;;17.50;99.90;;;;;;4997258;28;20053;-73
2023/07/04 10:27:36;;;;;;;6.03;0.80;;;17.90;1.00;;;;;;4997017;28;20105;-71
2023/07/04 10:30:06;;;;;;;10.15;1.08;;;18.30;1.00;;;;;;4995547;28;20045;-70
2023/07/04 10:32:41;;;;;;;7.00;0.98;;;18.90;99.90;;;;;;4996544;28;20056;-74
2023/07/04 10:35:13;;;;;;;9.73;1.20;;;19.30;99.90;;;;;;4977508;28;20530;-73
2023/07/04 10:37:42;;;;;;;7.88;0.85;;;19.60;1.00;;;;;;4996603;28;20052;-74
2023/07/04 10:40:14;;;;;;;8.75;0.70;;;19.40;99.90;;;;;;4996741;28;20261;-71
2023/07/04 10:42:55;;;;;;;6.35;0.63;;;19.10;99.90;;;;;;4995936;28;20490;-73
2023/07/04 10:45:23;;;;;;;4.97;0.60;;;19.10;99.90;;;;;;4978560;28;20056;-74
2023/07/04 10:47:52;;;;;;;5.90;0.63;;;19.40;99.90;;;;;;4996392;28;20037;-74
2023/07/04 10:50:48;;;;;;;5.22;0.50;;;19.80;99.90;;;;;;4979308;28;20076;-74
2023/07/04 10:53:14;;;;;;;7.38;0.52;;;20.00;99.90;;;;;;4995628;28;20445;-73
2023/07/04 10:55:45;;;;;;;3.25;0.40;;;20.20;99.90;;;;;;4997654;28;20052;-72
2023/07/04 10:58:18;;;;;;;2.88;0.30;;;19.70;99.90;;;;;;4999213;28;20494;-75
2023/07/04 11:01:01;;;;;;;2.75;0.40;;;18.10;99.90;;;;;;4981651;28;20142;-73
2023/07/04 11:03:51;;;;;;;3.55;0.32;;;16.40;99.90;;;;;;4999104;28;20080;-73
2023/07/04 11:06:24;;;;;;;1.95;0.30;;;15.20;99.90;;;;;;4989500;28;20145;-74
2023/07/04 11:08:50;;;;;;;;;;;14.60;99.90;;;;;;4996090;28;20367;-73
2023/07/04 11:11:28;;;;;;;3.05;0.30;;;14.60;99.90;;;;;;4996874;28;19948;-76
2023/07/04 11:13:57;;;;;;;3.22;0.40;;;14.90;1.00;;;;;;4996919;28;20045;-75
2023/07/04 11:16:29;;;;;;;4.57;0.40;;;15.70;99.90;;;;;;4996092;28;20050;-75
2023/07/04 11:19:13;;;;;;;3.67;0.50;;;16.40;7.60;;;;;;4997496;28;20050;-76
2023/07/04 11:22:00;;;;;;;7.72;0.50;;;17.30;99.90;;;;;;4997823;28;20037;-73
2023/07/04 11:24:39;;;;;;;6.53;0.40;;;18.00;99.90;;;;;;4996852;28;20049;-75
2023/07/04 11:27:13;;;;;;;5.85;0.40;;;18.50;99.90;;;;;;4997813;28;20796;-71
2023/07/04 11:29:55;;;;;;;7.85;0.70;;;19.20;43.80;;;;;;4998285;28;20525;-73
2023/07/04 11:32:54;;;;;;;4.82;0.60;;;19.70;1.00;;;;;;4997804;28;20115;-76
2023/07/04 11:35:23;;;;;;;6.32;0.70;;;20.00;99.90;;;;;;4996578;28;20448;-75
2023/07/04 11:38:03;;;;;;;5.63;0.43;;;20.20;99.90;;;;;;4996552;28;20050;-72
2023/07/04 11:40:49;;;;;;;4.43;0.73;;;20.70;99.90;;;;;;4997291;28;20124;-71
2023/07/04 11:43:29;;;;;;;5.90;0.50;;;20.30;99.90;;;;;;4997763;28;20042;-72
2023/07/04 11:45:56;;;;;;;6.38;0.90;;;19.70;99.90;;;;;;4997793;28;20132;-75
2023/07/04 11:48:27;;;;;;;4.88;0.40;;;19.20;99.90;;;;;;5000427;28;20049;-74
2023/07/04 11:51:04;;;;;;;2.20;0.47;;;18.90;99.90;;;;;;5000896;28;20041;-73
2023/07/04 11:53:46;;;;;;;5.15;0.57;;;18.80;99.90;;;;;;4999462;28;20355;-73
2023/07/04 11:56:24;;;;;;;7.27;0.83;;;19.30;99.90;;;;;;4999402;28;20104;-73
2023/07/04 11:59:18;;;;;;;4.88;0.47;;;19.90;99.90;;;;;;5000608;28;20287;-75
2023/07/04 12:01:56;;;;;;;9.00;0.50;;;20.50;99.90;;;;;;4996990;28;20334;-75
2023/07/04 12:04:43;;;;;;;3.72;0.40;;;20.90;99.90;;;;;;5009011;28;20046;-71
2023/07/04 12:07:18;;;;;;;3.85;0.47;;;21.00;81.50;;;;;;5010004;28;20057;-74
2023/07/04 12:09:52;;;;;;;4.32;0.70;;;20.90;99.90;;;;;;5005501;28;20046;-76
2023/07/04 12:12:25;;;;;;;6.03;0.60;;;21.20;91.40;;;;;;5001713;28;20045;-75
2023/07/04 12:15:00;;;;;;;6.38;0.40;;;20.70;98.60;;;;;;4998947;28;20073;-74
2023/07/04 12:17:25;;;;;;;4.18;0.50;;;20.30;93.80;;;;;;4998446;28;20054;-72
2023/07/04 12:20:04;;;;;;;5.85;0.50;;;19.90;99.60;;;;;;4997279;28;20037;-73
2023/07/04 12:22:30;;;;;;;4.40;0.52;;;19.90;99.90;;;;;;4998624;28;20453;-74
2023/07/04 12:25:19;;;;;;;5.60;0.68;;;20.10;99.90;;;;;;4998896;28;20452;-73
2023/07/04 12:27:44;;;;;;;3.30;0.50;;;20.30;97.80;;;;;;4987709;28;20312;-77
2023/07/04 12:30:12;;;;;;;6.60;0.50;;;20.70;65.00;;;;;;5005878;28;20094;-73
2023/07/04 12:32:38;;;;;;;6.53;0.60;;;21.10;95.30;;;;;;5009021;28;20135;-71
2023/07/04 12:35:06;;;;;;;4.78;0.40;;;21.70;93.50;;;;;;5002285;28;20085;-73
2023/07/04 12:37:39;;;;;;;4.78;0.57;;;21.70;39.00;;;;;;4996955;28;20137;-74
2023/07/04 12:40:11;;;;;;;4.00;0.40;;;21.40;26.10;;;;;;4998602;28;20041;-76
2023/07/04 12:42:38;;;;;;;4.22;0.50;;;21.30;34.40;;;;;;4980707;28;20049;-72
2023/07/04 12:45:09;;;;;;;3.35;0.30;;;21.40;23.80;;;;;;4980376;28;20042;-71
2023/07/04 12:47:35;;;;;;;5.68;0.47;;;21.20;23.10;;;;;;4997223;28;20038;-75
2023/07/04 12:50:02;;;;;;;3.92;0.70;;;20.80;21.70;;;;;;4996573;28;20197;-73
2023/07/04 12:52:32;;;;;;;4.03;0.60;;;20.40;28.00;;;;;;4964062;28;20825;-76
2023/07/04 12:55:01;;;;;;;3.88;0.50;;;20.30;30.00;;;;;;4996172;28;20183;-75
2023/07/04 12:57:28;;;;;;;2.90;0.50;;;20.70;17.60;;;;;;4996790;28;20129;-74
2023/07/04 13:00:07;;;;;;;4.50;0.50;;;21.20;10.60;;;;;;4997670;28;20104;-73